Time;durP1;ratioP1;P1;durP2;ratioP2;P2;SDS_P1;SDS_P2;PMS_P1;PMS_P2;Temp;Humidity;BMP_temperature;BMP_pressure;BME280_temperature;BME280_humidity;BME280_pressure;Samples;Min_cycle;Max_cycle;Signal;HPM_P1;HPM_P2
2021/03/30 00:02:05;;;;;;;8.80;4.85;;;;;;;13.41;40.54;101662.72;10364274;28;20503;-60
2021/03/30 00:07:06;;;;;;;7.50;5.45;;;;;;;13.38;41.06;101656.75;10370060;28;20057;-62
2021/03/30 00:12:07;;;;;;;7.30;5.28;;;;;;;13.32;41.23;101651.81;10374218;28;20148;-62
2021/03/30 00:17:08;;;;;;;7.38;5.82;;;;;;;13.26;41.57;101655.75;10373274;28;20183;-60
2021/03/30 00:22:09;;;;;;;7.40;5.85;;;;;;;13.15;41.82;101661.84;10374558;28;20843;-61
2021/03/30 00:27:10;;;;;;;8.23;5.43;;;;;;;13.09;42.18;101668.47;10372418;28;20121;-61
2021/03/30 00:32:13;;;;;;;8.00;5.20;;;;;;;13.01;42.11;101660.09;10367565;28;20057;-61
2021/03/30 00:37:14;;;;;;;8.77;5.35;;;;;;;12.95;42.44;101665.03;10365295;28;20426;-61
2021/03/30 00:42:20;;;;;;;10.15;5.65;;;;;;;12.88;42.46;101651.19;10351935;28;20058;-61
2021/03/30 00:47:21;;;;;;;8.00;5.03;;;;;;;12.80;42.69;101666.91;10369403;28;20545;-62
2021/03/30 00:52:23;;;;;;;6.10;5.03;;;;;;;12.76;43.01;101660.06;10369847;28;20371;-61
2021/03/30 00:57:24;;;;;;;9.05;6.18;;;;;;;12.64;43.37;101657.28;10365174;28;20422;-61
2021/03/30 01:02:25;;;;;;;8.00;5.03;;;;;;;12.64;43.59;101667.94;10374443;28;20128;-61
2021/03/30 01:07:27;;;;;;;9.43;6.28;;;;;;;12.61;43.87;101667.28;10377819;28;20127;-62
2021/03/30 01:12:39;;;;;;;8.18;5.32;;;;;;;12.51;43.85;101661.72;10373675;28;20045;-62
2021/03/30 01:18:11;;;;;;;7.07;5.85;;;;;;;12.37;44.29;101665.31;10372034;28;20053;-62
2021/03/30 01:23:37;;;;;;;9.32;5.70;;;;;;;12.27;44.71;101670.38;10371766;28;20068;-61
2021/03/30 01:28:43;;;;;;;7.18;5.75;;;;;;;12.22;44.83;101661.81;10372406;28;20041;-62
2021/03/30 01:33:45;;;;;;;6.53;5.65;;;;;;;12.15;45.00;101669.34;10369286;28;20107;-61
2021/03/30 01:38:47;;;;;;;8.25;5.95;;;;;;;12.09;45.55;101671.56;10358282;28;20053;-61
2021/03/30 01:43:49;;;;;;;8.77;7.03;;;;;;;11.92;45.49;101660.13;10375822;28;20144;-61
2021/03/30 01:48:51;;;;;;;7.00;6.30;;;;;;;11.86;45.83;101655.19;10361112;28;20447;-61
2021/03/30 01:53:54;;;;;;;7.95;5.80;;;;;;;11.81;46.05;101658.16;10366973;28;20049;-62
2021/03/30 01:58:56;;;;;;;9.70;6.22;;;;;;;11.83;46.27;101658.06;10371197;28;20057;-61
2021/03/30 02:03:59;;;;;;;6.03;5.22;;;;;;;11.74;46.90;101656.81;10364757;28;20065;-62
2021/03/30 02:09:04;;;;;;;10.60;6.32;;;;;;;11.65;47.06;101655.59;10349842;28;20060;-61
2021/03/30 02:14:05;;;;;;;9.40;6.20;;;;;;;11.63;47.08;101657.50;10378395;28;20123;-62
2021/03/30 02:19:14;;;;;;;8.27;5.68;;;;;;;11.61;47.35;101667.41;10382060;28;20374;-62
2021/03/30 02:24:17;;;;;;;7.68;5.80;;;;;;;11.51;47.87;101660.91;10381948;28;20053;-60
2021/03/30 02:29:22;;;;;;;8.57;5.93;;;;;;;11.50;47.37;101654.72;10381401;28;20100;-61
2021/03/30 02:34:28;;;;;;;8.65;5.25;;;;;;;11.48;47.81;101656.66;10364891;28;20076;-61
2021/03/30 02:39:29;;;;;;;8.35;5.43;;;;;;;11.40;47.69;101652.75;10375135;28;20469;-61
2021/03/30 02:44:32;;;;;;;8.60;6.53;;;;;;;11.40;48.09;101647.41;10359315;28;20107;-62
2021/03/30 02:49:35;;;;;;;8.43;5.43;;;;;;;11.34;48.23;101648.63;10377296;28;20049;-61
2021/03/30 02:54:36;;;;;;;7.18;5.13;;;;;;;11.09;48.67;101657.25;10353923;28;20057;-61
2021/03/30 02:59:37;;;;;;;7.53;5.57;;;;;;;10.92;49.70;101659.13;10366807;28;20183;-61
2021/03/30 03:04:39;;;;;;;6.85;5.43;;;;;;;10.79;49.52;101656.34;10383166;28;20057;-61
2021/03/30 03:09:40;;;;;;;7.75;6.28;;;;;;;10.74;50.28;101660.22;10396248;23;20085;-59
2021/03/30 03:14:42;;;;;;;8.82;6.00;;;;;;;10.60;50.70;101663.72;10395448;28;20053;-59
2021/03/30 03:19:44;;;;;;;11.00;6.32;;;;;;;10.64;50.82;101659.91;10422796;28;20049;-58
2021/03/30 03:24:49;;;;;;;7.68;6.10;;;;;;;10.69;51.02;101656.97;10405926;28;20049;-59
2021/03/30 03:29:51;;;;;;;8.30;5.85;;;;;;;10.67;51.00;101659.72;10392329;28;20694;-57
2021/03/30 03:34:52;;;;;;;7.43;5.50;;;;;;;10.64;50.83;101667.03;10387343;28;20525;-61
2021/03/30 03:39:52;;;;;;;7.18;5.70;;;;;;;10.71;50.67;101671.91;10390260;28;20049;-59
2021/03/30 03:44:53;;;;;;;9.00;5.90;;;;;;;10.53;51.27;101679.16;10387359;28;20057;-59
2021/03/30 03:49:54;;;;;;;8.48;5.97;;;;;;;10.48;51.28;101681.25;10387250;28;20168;-58
2021/03/30 03:54:58;;;;;;;9.13;5.55;;;;;;;10.47;51.10;101674.19;10379343;28;20047;-58
2021/03/30 04:00:00;;;;;;;9.38;5.80;;;;;;;10.42;51.10;101671.81;10388708;28;20049;-61
2021/03/30 04:05:03;;;;;;;8.63;6.00;;;;;;;10.36;51.76;101674.81;10381588;28;20099;-58
2021/03/30 04:10:07;;;;;;;8.45;6.03;;;;;;;10.30;51.81;101674.25;10381996;28;20065;-58
2021/03/30 04:15:09;;;;;;;16.15;7.32;;;;;;;10.26;52.25;101687.75;10384204;28;22422;-58
2021/03/30 04:20:15;;;;;;;8.68;6.55;;;;;;;10.24;52.13;101692.31;10385608;28;20049;-59
2021/03/30 04:25:16;;;;;;;10.18;6.03;;;;;;;10.22;51.97;101690.66;10385069;28;20049;-57
2021/03/30 04:30:17;;;;;;;9.05;6.72;;;;;;;10.26;52.38;101681.56;10384972;28;20049;-59
2021/03/30 04:35:18;;;;;;;8.27;5.45;;;;;;;10.16;52.38;101691.84;10405175;28;20142;-59
2021/03/30 04:40:19;;;;;;;10.80;5.90;;;;;;;10.10;52.22;101692.19;10401399;28;20108;-58
2021/03/30 04:45:20;;;;;;;9.25;5.75;;;;;;;10.06;52.68;101696.00;10382169;28;20095;-59
2021/03/30 04:50:21;;;;;;;9.55;6.22;;;;;;;10.07;52.89;101695.03;10382496;28;20671;-60
2021/03/30 04:55:22;;;;;;;8.48;5.70;;;;;;;9.99;52.74;101705.25;10376710;28;20120;-60
2021/03/30 05:00:23;;;;;;;7.63;5.90;;;;;;;9.93;52.93;101719.75;10390502;28;20080;-59
2021/03/30 05:05:24;;;;;;;10.30;5.78;;;;;;;9.94;52.98;101717.94;10387543;28;20103;-58
2021/03/30 05:10:26;;;;;;;6.47;5.57;;;;;;;10.06;52.54;101715.47;10405887;28;20127;-58
2021/03/30 05:15:27;;;;;;;10.50;7.13;;;;;;;10.04;52.78;101720.03;10387827;28;20049;-59
2021/03/30 05:20:28;;;;;;;9.68;7.22;;;;;;;9.95;52.79;101730.28;10397646;28;20162;-59
2021/03/30 05:25:29;;;;;;;11.85;7.50;;;;;;;9.93;53.09;101732.19;10371626;28;20132;-59
2021/03/30 05:30:30;;;;;;;8.68;6.72;;;;;;;9.93;53.29;101738.34;10389827;28;20046;-58
2021/03/30 05:35:32;;;;;;;9.20;6.95;;;;;;;9.93;53.18;101745.50;10389671;28;20124;-59
2021/03/30 05:40:33;;;;;;;12.02;8.38;;;;;;;9.99;53.19;101746.00;10390983;28;20124;-58
2021/03/30 05:45:34;;;;;;;11.00;7.65;;;;;;;10.06;52.83;101744.72;10386522;28;20068;-58
2021/03/30 05:50:35;;;;;;;8.98;5.28;;;;;;;10.04;52.87;101751.06;10392016;28;20048;-59
2021/03/30 05:55:38;;;;;;;8.32;6.75;;;;;;;10.08;52.91;101755.28;10391408;28;20053;-59
2021/03/30 06:00:44;;;;;;;8.88;5.40;;;;;;;10.20;52.53;101765.25;10389404;28;20073;-64
2021/03/30 06:05:45;;;;;;;8.93;5.25;;;;;;;10.26;52.15;101770.25;10380032;28;20506;-58
2021/03/30 06:10:47;;;;;;;7.90;6.32;;;;;;;10.29;52.22;101763.06;10388470;28;20099;-58
2021/03/30 06:15:48;;;;;;;7.50;5.78;;;;;;;10.44;51.81;101764.88;10382376;28;20688;-58
2021/03/30 06:20:52;;;;;;;6.90;5.55;;;;;;;10.58;51.56;101764.09;10386726;28;20114;-59
2021/03/30 06:25:56;;;;;;;6.30;5.28;;;;;;;10.60;51.19;101765.75;10389434;28;20072;-62
2021/03/30 06:30:56;;;;;;;9.23;6.07;;;;;;;10.45;51.09;101766.63;10429908;28;20160;-59
2021/03/30 06:36:32;;;;;;;9.32;6.53;;;;;;;10.48;51.36;101774.44;10429619;28;20057;-57
2021/03/30 06:41:47;;;;;;;;;;;;;;;10.85;50.60;101780.31;10406892;28;20042;-58
2021/03/30 06:46:50;;;;;;;9.50;5.90;;;;;;;11.18;49.86;101779.31;10406723;28;19921;-58
2021/03/30 06:51:53;;;;;;;9.35;5.85;;;;;;;11.34;49.39;101779.25;10387166;28;20060;-58
2021/03/30 06:56:56;;;;;;;9.98;6.25;;;;;;;11.54;49.15;101772.72;10390065;28;20060;-58
2021/03/30 07:01:57;;;;;;;10.57;6.60;;;;;;;11.82;48.21;101761.22;10385058;28;20527;-58
2021/03/30 07:06:59;;;;;;;11.35;8.05;;;;;;;12.15;47.05;101770.78;10371143;28;20049;-57
2021/03/30 07:12:01;;;;;;;11.25;6.18;;;;;;;12.44;46.42;101772.56;10385704;28;20060;-58
2021/03/30 07:17:03;;;;;;;10.68;6.13;;;;;;;12.05;46.45;101766.13;10382008;28;20096;-57
2021/03/30 07:22:09;;;;;;;9.82;6.50;;;;;;;12.07;46.72;101780.22;10384064;28;20073;-58
2021/03/30 07:27:17;;;;;;;7.82;5.63;;;;;;;12.15;46.53;101770.78;10381942;28;20697;-59
2021/03/30 07:32:58;;;;;;;9.43;6.53;;;;;;;12.31;46.62;101777.81;10378877;28;20041;-58
2021/03/30 07:38:20;;;;;;;9.52;6.05;;;;;;;12.62;46.34;101776.69;10374122;28;20492;-58
2021/03/30 07:43:29;;;;;;;8.38;5.07;;;;;;;12.64;44.86;101780.16;10385555;28;20042;-58
2021/03/30 07:48:33;;;;;;;10.32;6.93;;;;;;;12.80;45.55;101784.50;10385465;28;20053;-63
2021/03/30 07:53:55;;;;;;;9.25;5.50;;;;;;;13.36;44.93;101782.56;10413521;28;20044;-58
2021/03/30 07:58:57;;;;;;;8.80;6.72;;;;;;;13.84;43.54;101789.09;10393194;28;20053;-59
2021/03/30 08:04:00;;;;;;;9.57;5.60;;;;;;;14.26;41.63;101784.34;10386822;28;20525;-58
2021/03/30 08:09:14;;;;;;;7.55;5.57;;;;;;;14.64;41.14;101788.78;10384517;28;20103;-59
2021/03/30 08:14:18;;;;;;;6.20;5.20;;;;;;;14.29;41.36;101787.69;10382485;28;20133;-59
2021/03/30 08:19:35;;;;;;;8.73;5.63;;;;;;;14.52;41.37;101776.25;10381209;28;20045;-58
2021/03/30 08:24:45;;;;;;;8.13;5.60;;;;;;;14.66;41.99;101776.97;10372499;28;20071;-59
2021/03/30 08:29:47;;;;;;;9.32;6.60;;;;;;;15.56;40.25;101784.50;10368078;28;20056;-58
2021/03/30 08:34:48;;;;;;;9.10;5.95;;;;;;;15.82;38.70;101781.69;10371412;28;20056;-63
2021/03/30 08:39:50;;;;;;;9.05;6.53;;;;;;;16.23;38.35;101777.53;10358516;28;20045;-63
2021/03/30 08:45:03;;;;;;;10.73;7.40;;;;;;;16.39;37.25;101776.28;10375683;28;20049;-60
2021/03/30 08:50:23;;;;;;;10.93;7.35;;;;;;;16.75;36.37;101771.56;10382953;28;20119;-60
2021/03/30 08:55:32;;;;;;;8.00;6.70;;;;;;;17.33;35.85;101775.78;10368880;28;20050;-58
2021/03/30 09:00:35;;;;;;;10.20;5.95;;;;;;;17.81;34.72;101783.28;10375585;28;20738;-59
2021/03/30 09:05:40;;;;;;;9.77;6.53;;;;;;;18.28;34.27;101777.41;10383744;28;20056;-58
2021/03/30 09:15:46;;;;;;;13.50;6.43;;;;;;;19.38;31.64;101777.28;10274315;28;20275;-56
2021/03/30 09:20:47;;;;;;;11.73;7.32;;;;;;;19.01;31.60;101780.69;10302570;28;20058;-55
2021/03/30 09:25:52;;;;;;;9.02;6.18;;;;;;;19.35;31.91;101771.28;10303193;28;20095;-56
2021/03/30 09:30:53;;;;;;;9.88;6.57;;;;;;;20.20;29.72;101766.78;10303393;28;20428;-56
2021/03/30 09:35:54;;;;;;;8.32;6.38;;;;;;;20.39;29.44;101755.03;10301949;28;20081;-56
2021/03/30 09:40:55;;;;;;;10.77;6.57;;;;;;;21.00;28.00;101741.78;10303613;28;20062;-55
2021/03/30 09:45:57;;;;;;;11.02;6.15;;;;;;;21.85;27.51;101758.31;10304325;28;20522;-54
2021/03/30 09:50:58;;;;;;;9.48;6.45;;;;;;;22.55;26.23;101759.97;10306177;28;20108;-56
2021/03/30 09:56:02;;;;;;;7.00;6.03;;;;;;;22.83;25.61;101751.53;10304740;28;20136;-57
2021/03/30 10:01:03;;;;;;;8.50;5.97;;;;;;;22.60;26.22;101735.91;10304520;28;20066;-57
2021/03/30 10:06:17;;;;;;;13.10;5.35;;;;;;;23.61;24.92;101739.28;10316383;28;20096;-57
2021/03/30 10:11:27;;;;;;;9.05;6.07;;;;;;;24.72;23.87;101730.34;10304052;28;20255;-57
2021/03/30 10:16:28;;;;;;;9.25;6.38;;;;;;;26.05;21.94;101735.19;10308154;28;20042;-57
2021/03/30 10:21:36;;;;;;;7.43;5.35;;;;;;;29.62;17.46;101722.22;10310655;28;20153;-57
2021/03/30 10:26:37;;;;;;;8.38;5.90;;;;;;;32.23;14.54;101717.47;10310939;28;20050;-57
2021/03/30 10:31:50;;;;;;;7.78;5.72;;;;;;;32.54;14.15;101711.94;10310815;28;20050;-57
2021/03/30 10:36:52;;;;;;;;;;;;;;;29.93;15.46;101717.06;10313183;28;20503;-57
2021/03/30 10:42:00;;;;;;;7.80;6.10;;;;;;;29.61;16.17;101701.31;10310284;28;20291;-58
2021/03/30 10:47:18;;;;;;;6.82;5.90;;;;;;;30.11;15.68;101702.63;10309516;28;20105;-57
2021/03/30 10:52:22;;;;;;;7.00;5.35;;;;;;;34.98;12.32;101703.91;10310803;28;20046;-57
2021/03/30 10:57:26;;;;;;;7.88;5.75;;;;;;;38.43;9.45;101688.31;10305939;28;20478;-56
2021/03/30 11:02:27;;;;;;;10.18;6.13;;;;;;;40.19;8.15;101675.63;10308456;28;20061;-56
2021/03/30 11:07:28;;;;;;;10.07;5.50;;;;;;;41.59;7.42;101663.91;10310946;28;20061;-57
2021/03/30 11:12:29;;;;;;;9.60;5.43;;;;;;;40.81;7.89;101673.16;10321529;28;20051;-56
2021/03/30 11:17:30;;;;;;;9.93;5.15;;;;;;;42.72;6.71;101667.81;10307208;28;20042;-57
2021/03/30 11:22:32;;;;;;;7.35;5.80;;;;;;;43.34;6.38;101661.84;10308286;28;20053;-58
2021/03/30 11:27:34;;;;;;;8.70;5.30;;;;;;;43.92;6.05;101651.09;10308129;28;20054;-59
2021/03/30 11:42:52;;;;;;;6.53;5.20;;;;;;;45.60;5.06;101624.38;10305443;28;20733;-61
2021/03/30 11:47:53;;;;;;;7.72;5.13;;;;;;;46.52;4.49;101619.66;10305800;28;20101;-58
2021/03/30 11:52:54;;;;;;;3.90;3.53;;;;;;;45.78;4.34;101610.28;10309059;28;20104;-59
2021/03/30 11:57:55;;;;;;;7.05;4.15;;;;;;;47.20;4.42;101618.88;10305517;28;20050;-60
2021/03/30 12:02:56;;;;;;;5.50;3.67;;;;;;;46.92;3.74;101605.28;10317198;28;20054;-60
2021/03/30 12:07:59;;;;;;;3.92;2.55;;;;;;;47.74;3.36;101596.44;10303059;28;20655;-58
2021/03/30 12:12:59;;;;;;;5.88;3.67;;;;;;;46.85;3.99;101597.34;10308636;28;20117;-58
2021/03/30 12:18:00;;;;;;;4.35;3.00;;;;;;;47.72;3.23;101590.34;10305421;28;20098;-59
2021/03/30 12:23:01;;;;;;;4.53;2.45;;;;;;;48.11;3.42;101576.84;10303423;28;20054;-60
2021/03/30 12:28:03;;;;;;;4.13;2.92;;;;;;;49.59;3.23;101580.84;10307543;28;20046;-58
2021/03/30 12:33:04;;;;;;;6.35;3.17;;;;;;;49.52;2.90;101568.13;10303842;28;20085;-57
2021/03/30 12:38:05;;;;;;;3.47;2.58;;;;;;;49.91;3.12;101558.31;10304368;28;20046;-59
2021/03/30 12:43:06;;;;;;;3.97;3.17;;;;;;;49.97;2.36;101548.38;10303486;28;20773;-58
2021/03/30 12:48:10;;;;;;;3.67;2.83;;;;;;;49.68;2.97;101541.91;10306665;28;20105;-58
2021/03/30 12:53:11;;;;;;;5.47;3.10;;;;;;;48.62;2.45;101525.75;10304152;28;20574;-59
2021/03/30 12:58:12;;;;;;;6.38;3.35;;;;;;;48.44;3.37;101519.53;10303198;28;20057;-58
2021/03/30 13:03:13;;;;;;;3.22;2.90;;;;;;;48.60;3.25;101516.81;10303235;28;20119;-58
2021/03/30 13:08:14;;;;;;;7.78;3.83;;;;;;;47.58;3.05;101516.44;10301334;28;20408;-61
2021/03/30 13:13:14;;;;;;;4.75;3.17;;;;;;;45.92;4.28;101509.72;10299409;28;20058;-61
2021/03/30 13:18:16;;;;;;;4.72;2.42;;;;;;;42.69;5.68;101495.72;10302753;28;20618;-59
2021/03/30 13:23:17;;;;;;;4.80;3.08;;;;;;;39.08;7.38;101479.00;10302418;28;20074;-58
2021/03/30 13:28:18;;;;;;;5.85;3.00;;;;;;;37.19;8.27;101481.63;10303463;28;20089;-58
2021/03/30 13:33:20;;;;;;;4.40;2.97;;;;;;;35.54;9.35;101474.97;10302147;28;20046;-58
2021/03/30 13:38:21;;;;;;;4.47;3.22;;;;;;;34.79;9.28;101469.13;10307166;28;20061;-61
2021/03/30 13:43:23;;;;;;;5.80;3.70;;;;;;;34.49;9.87;101464.00;10311065;28;20631;-60
2021/03/30 13:48:24;;;;;;;7.28;3.33;;;;;;;33.60;10.65;101465.53;10313276;28;20062;-58
2021/03/30 13:53:25;;;;;;;5.55;3.15;;;;;;;32.93;10.58;101450.47;10310683;28;20104;-59
2021/03/30 13:58:26;;;;;;;3.53;2.92;;;;;;;32.49;10.81;101453.66;10309253;28;20050;-58
2021/03/30 14:03:27;;;;;;;4.35;2.80;;;;;;;31.98;14.09;101422.09;10310164;28;20050;-58
2021/03/30 14:08:28;;;;;;;3.75;2.83;;;;;;;31.79;12.12;101432.41;10310787;28;20046;-58
2021/03/30 14:13:36;;;;;;;4.65;3.25;;;;;;;30.86;12.20;101432.59;10312822;28;20464;-57
2021/03/30 14:24:22;;;;;;;4.97;3.10;;;;;;;29.40;13.04;101419.13;10290264;28;20439;-56
2021/03/30 14:29:23;;;;;;;5.60;3.42;;;;;;;28.98;12.79;101413.22;10304039;28;20101;-55
2021/03/30 14:34:36;;;;;;;4.30;3.10;;;;;;;28.81;15.80;101413.72;10303270;28;20050;-56
2021/03/30 14:39:39;;;;;;;3.92;3.30;;;;;;;28.48;16.04;101391.84;10304072;28;20133;-57
2021/03/30 14:56:22;;;;;;;6.28;3.65;;;;;;;27.08;15.89;101377.09;10302877;28;20042;-57
2021/03/30 15:06:29;;;;;;;4.28;3.45;;;;;;;26.54;17.88;101365.09;10304672;28;20046;-57
2021/03/30 15:11:30;;;;;;;5.28;3.72;;;;;;;26.36;16.83;101357.44;10316790;22;20057;-59
2021/03/30 15:16:32;;;;;;;6.15;3.10;;;;;;;26.21;18.09;101360.28;10330360;28;20479;-61
2021/03/30 15:21:53;;;;;;;3.58;3.10;;;;;;;26.16;18.00;101351.00;10340905;28;20122;-62
2021/03/30 15:26:58;;;;;;;5.03;3.25;;;;;;;25.96;17.77;101345.38;10338501;28;20049;-59
2021/03/30 15:31:59;;;;;;;5.43;3.55;;;;;;;25.62;17.00;101339.66;10340034;28;20046;-58
2021/03/30 15:37:00;;;;;;;3.97;3.13;;;;;;;25.31;17.87;101332.72;10340508;28;20693;-57
2021/03/30 15:42:02;;;;;;;9.93;3.65;;;;;;;25.29;17.78;101329.28;10332430;28;20073;-59
2021/03/30 15:47:18;;;;;;;3.83;2.80;;;;;;;25.12;17.53;101322.41;10337642;28;20418;-59
2021/03/30 15:52:20;;;;;;;5.18;2.95;;;;;;;25.04;18.40;101326.09;10342942;28;20283;-58
2021/03/30 15:57:21;;;;;;;4.82;2.80;;;;;;;24.91;17.94;101304.19;10338568;28;20141;-60
2021/03/30 16:02:23;;;;;;;3.78;2.95;;;;;;;24.60;18.83;101314.28;10339603;28;20127;-58
2021/03/30 16:07:24;;;;;;;4.13;2.63;;;;;;;24.60;18.32;101306.13;10321981;28;20146;-60
2021/03/30 16:12:25;;;;;;;5.22;2.83;;;;;;;24.46;18.86;101306.97;10337439;28;20077;-58
2021/03/30 16:17:26;;;;;;;3.45;2.10;;;;;;;24.42;18.13;101297.50;10340607;28;20061;-63
2021/03/30 16:22:27;;;;;;;2.97;2.28;;;;;;;24.13;18.41;101285.59;10339781;28;20144;-60
2021/03/30 16:27:28;;;;;;;3.20;2.35;;;;;;;24.09;18.60;101308.78;10336945;28;20053;-60
2021/03/30 16:32:29;;;;;;;4.15;2.13;;;;;;;23.98;18.21;101294.59;10325006;28;20077;-61
2021/03/30 16:37:30;;;;;;;3.13;1.85;;;;;;;23.88;18.08;101299.47;10332606;28;20118;-60
2021/03/30 16:42:32;;;;;;;3.28;2.15;;;;;;;23.71;18.27;101303.38;10325009;28;20050;-61
2021/03/30 16:47:33;;;;;;;5.50;2.58;;;;;;;23.61;18.22;101300.91;10344869;28;20042;-61
2021/03/30 16:52:34;;;;;;;2.97;1.77;;;;;;;23.45;18.42;101294.59;10337800;28;20049;-61
2021/03/30 16:57:35;;;;;;;4.72;2.40;;;;;;;23.33;18.54;101287.03;10340106;28;20053;-61
2021/03/30 17:02:38;;;;;;;3.45;1.90;;;;;;;23.22;19.08;101282.91;10331794;28;20054;-63
2021/03/30 17:07:39;;;;;;;3.08;1.50;;;;;;;23.08;19.22;101287.22;10330749;28;20077;-60
2021/03/30 17:12:40;;;;;;;2.42;1.88;;;;;;;22.93;19.12;101290.69;10337122;28;20584;-62
2021/03/30 17:17:41;;;;;;;3.53;1.60;;;;;;;22.75;19.33;101280.13;10344340;28;20042;-61
2021/03/30 17:22:42;;;;;;;2.78;1.67;;;;;;;22.63;19.66;101288.88;10328859;28;20414;-61
2021/03/30 17:27:43;;;;;;;5.03;2.10;;;;;;;22.44;20.09;101284.72;10347327;28;20069;-63
2021/03/30 17:32:44;;;;;;;7.13;2.83;;;;;;;22.29;20.49;101279.16;10330880;28;20046;-61
2021/03/30 17:37:46;;;;;;;5.45;2.40;;;;;;;22.13;21.39;101277.34;10346155;28;20056;-62
2021/03/30 17:42:47;;;;;;;9.25;4.47;;;;;;;22.02;21.39;101265.00;10344795;28;20042;-62
2021/03/30 17:47:48;;;;;;;7.28;4.22;;;;;;;21.90;21.01;101267.22;10326435;28;20236;-62
2021/03/30 17:52:49;;;;;;;8.38;5.68;;;;;;;21.78;21.40;101260.50;10342345;28;20087;-61
2021/03/30 17:57:51;;;;;;;9.10;5.25;;;;;;;21.62;20.58;101262.22;10338629;28;20129;-64
2021/03/30 18:02:53;;;;;;;9.82;4.65;;;;;;;21.47;21.40;101264.75;10335094;28;20050;-62
2021/03/30 18:07:55;;;;;;;4.43;2.97;;;;;;;21.36;20.95;101259.66;10327374;28;20084;-62
2021/03/30 18:12:56;;;;;;;6.28;3.40;;;;;;;21.28;20.20;101262.41;10345768;28;20061;-61
2021/03/30 18:17:59;;;;;;;3.60;2.72;;;;;;;21.17;20.34;101267.13;10341095;28;20062;-62
2021/03/30 18:23:00;;;;;;;3.05;1.70;;;;;;;21.09;19.78;101269.84;10340205;28;20049;-63
2021/03/30 18:28:02;;;;;;;3.45;1.80;;;;;;;21.01;20.26;101276.06;10332724;28;20108;-62
2021/03/30 18:33:04;;;;;;;4.88;2.72;;;;;;;20.88;19.77;101264.88;10347869;28;20061;-63
2021/03/30 18:38:05;;;;;;;7.30;4.13;;;;;;;20.83;21.57;101272.66;10342379;28;20161;-62
2021/03/30 18:43:08;;;;;;;7.68;3.03;;;;;;;20.77;20.99;101271.47;10339684;28;20045;-62
2021/03/30 18:48:09;;;;;;;3.47;2.70;;;;;;;20.67;21.93;101265.34;10345633;28;20061;-64
2021/03/30 18:53:11;;;;;;;3.80;3.05;;;;;;;20.54;21.54;101264.97;10346589;28;20108;-62
2021/03/30 18:58:19;;;;;;;3.50;2.88;;;;;;;20.40;21.87;101252.91;10341760;28;20422;-58
2021/03/30 19:03:21;;;;;;;4.10;3.10;;;;;;;20.32;21.60;101256.44;10339632;28;20185;-60
2021/03/30 19:08:22;;;;;;;4.45;3.25;;;;;;;20.21;22.60;101262.16;10341934;28;20061;-58
2021/03/30 19:13:23;;;;;;;4.97;3.63;;;;;;;20.18;22.50;101259.78;10339947;28;20050;-57
2021/03/30 19:18:25;;;;;;;6.18;4.57;;;;;;;20.01;22.32;101259.69;10339894;28;20136;-58
2021/03/30 19:23:31;;;;;;;6.80;4.30;;;;;;;19.89;23.45;101260.94;10337650;28;20046;-57
2021/03/30 19:28:33;;;;;;;11.00;4.13;;;;;;;19.72;23.48;101255.41;10339491;28;20463;-58
2021/03/30 19:33:47;;;;;;;6.68;3.83;;;;;;;19.53;23.26;101250.22;10337598;28;20655;-57
2021/03/30 19:38:47;;;;;;;6.38;3.90;;;;;;;19.46;23.50;101255.41;10336651;28;20180;-58
2021/03/30 19:43:49;;;;;;;7.93;4.63;;;;;;;19.37;24.42;101254.50;10338352;28;20050;-59
2021/03/30 19:48:50;;;;;;;5.95;4.43;;;;;;;19.25;25.00;101258.47;10339348;28;20050;-59
2021/03/30 19:53:52;;;;;;;7.25;4.82;;;;;;;19.02;25.61;101252.69;10336729;28;20078;-61
2021/03/30 19:58:53;;;;;;;6.82;4.70;;;;;;;18.87;25.52;101257.75;10335407;28;20075;-61
2021/03/30 20:03:54;;;;;;;10.57;6.75;;;;;;;18.71;25.72;101255.72;10333970;28;20129;-62
2021/03/30 20:08:55;;;;;;;8.32;5.03;;;;;;;18.58;26.61;101257.94;10332865;28;20053;-61
2021/03/30 20:13:57;;;;;;;7.50;5.38;;;;;;;18.47;26.27;101253.63;10333463;28;20165;-66
2021/03/30 20:18:58;;;;;;;8.13;6.63;;;;;;;18.33;26.62;101247.72;10334411;28;20111;-63
2021/03/30 20:23:59;;;;;;;10.68;7.45;;;;;;;18.23;26.78;101244.22;10330994;28;20164;-59
2021/03/30 20:29:02;;;;;;;9.10;6.60;;;;;;;18.06;26.79;101235.09;10336654;28;20050;-60
2021/03/30 20:34:03;;;;;;;7.72;5.97;;;;;;;18.04;27.02;101234.38;10329649;28;20559;-62
2021/03/30 20:39:05;;;;;;;9.32;5.95;;;;;;;17.88;27.65;101226.94;10333731;28;20050;-60
2021/03/30 20:44:06;;;;;;;9.98;6.85;;;;;;;17.82;27.98;101233.75;10329306;28;20271;-60
2021/03/30 20:49:07;;;;;;;7.43;6.15;;;;;;;17.76;28.02;101237.03;10345066;28;20591;-61
2021/03/30 20:54:09;;;;;;;10.80;7.40;;;;;;;17.77;28.32;101227.09;10341771;28;20418;-61
2021/03/30 20:59:10;;;;;;;9.88;6.45;;;;;;;17.63;28.52;101220.34;10339503;28;20046;-63
2021/03/30 21:04:11;;;;;;;7.82;5.35;;;;;;;17.60;28.17;101229.53;10332738;28;20050;-61
2021/03/30 21:09:12;;;;;;;8.60;5.10;;;;;;;17.46;29.05;101228.19;10318389;28;20116;-59
2021/03/30 21:14:13;;;;;;;7.25;5.18;;;;;;;17.39;29.30;101231.59;10325806;28;20050;-63
2021/03/30 21:19:14;;;;;;;7.60;6.28;;;;;;;17.36;29.67;101237.25;10317004;23;20045;-56
2021/03/30 21:24:15;;;;;;;7.15;5.85;;;;;;;17.22;29.79;101235.84;10347549;28;20045;-56
2021/03/30 21:29:16;;;;;;;9.50;4.80;;;;;;;17.09;30.34;101231.59;10351313;28;20053;-55
2021/03/30 21:34:17;;;;;;;7.95;5.63;;;;;;;16.93;30.54;101224.13;10354928;28;20057;-60
2021/03/30 21:39:18;;;;;;;10.90;6.70;;;;;;;16.75;30.49;101206.94;10338433;28;20077;-55
2021/03/30 21:44:19;;;;;;;8.15;4.97;;;;;;;16.83;30.52;101227.75;10330085;28;20058;-56
2021/03/30 21:49:21;;;;;;;8.23;5.38;;;;;;;16.77;30.40;101223.81;10354704;28;20049;-54
2021/03/30 21:54:22;;;;;;;6.30;3.92;;;;;;;16.69;30.85;101213.72;10354372;28;20053;-56
2021/03/30 21:59:24;;;;;;;9.13;5.15;;;;;;;16.63;31.32;101219.66;10357582;28;20053;-56
2021/03/30 22:04:25;;;;;;;5.07;3.60;;;;;;;16.57;31.79;101210.34;10357248;28;20057;-56
2021/03/30 22:09:27;;;;;;;9.82;4.43;;;;;;;16.46;31.90;101199.69;10359317;28;20085;-56
2021/03/30 22:14:29;;;;;;;6.20;3.72;;;;;;;16.56;32.35;101207.78;10355104;28;20061;-56
2021/03/30 22:19:40;;;;;;;7.10;4.72;;;;;;;16.43;32.01;101203.50;10345497;28;20049;-55
2021/03/30 22:24:41;;;;;;;6.45;4.25;;;;;;;16.41;32.81;101208.19;10341447;28;20636;-56
2021/03/30 22:29:49;;;;;;;5.60;3.78;;;;;;;16.37;33.20;101206.75;10349184;28;20057;-54
2021/03/30 22:34:50;;;;;;;5.28;3.90;;;;;;;16.20;33.29;101186.78;10349928;28;20108;-56
2021/03/30 22:39:51;;;;;;;7.90;5.20;;;;;;;16.26;33.78;101205.03;10350838;28;20065;-55
2021/03/30 22:44:52;;;;;;;8.85;5.53;;;;;;;16.11;33.98;101203.72;10349460;28;20050;-56
2021/03/30 22:49:53;;;;;;;5.78;5.18;;;;;;;16.08;34.41;101204.84;10357979;28;20050;-56
2021/03/30 22:54:54;;;;;;;6.15;4.22;;;;;;;16.00;34.42;101211.88;10359669;28;20112;-56
2021/03/30 22:59:55;;;;;;;6.32;4.70;;;;;;;15.90;34.63;101218.06;10355883;28;20065;-56
2021/03/30 23:04:56;;;;;;;7.65;5.03;;;;;;;15.82;35.08;101204.47;10349247;28;20116;-56
2021/03/30 23:09:57;;;;;;;5.75;4.13;;;;;;;15.70;35.20;101211.72;10348870;28;20070;-56
2021/03/30 23:14:58;;;;;;;5.60;4.05;;;;;;;15.59;35.64;101210.97;10357717;28;20679;-55
2021/03/30 23:19:59;;;;;;;5.72;3.75;;;;;;;15.53;35.67;101215.84;10352612;28;20056;-56
2021/03/30 23:25:00;;;;;;;4.45;3.85;;;;;;;15.47;36.06;101197.59;10348931;28;20136;-55
2021/03/30 23:30:04;;;;;;;7.00;3.78;;;;;;;15.48;36.29;101204.69;10354322;28;20045;-55
2021/03/30 23:35:12;;;;;;;8.07;4.57;;;;;;;15.40;36.46;101215.22;10353858;28;20132;-56
2021/03/30 23:40:15;;;;;;;5.95;4.25;;;;;;;15.28;36.74;101190.31;10353424;28;20065;-56
2021/03/30 23:45:17;;;;;;;5.22;3.80;;;;;;;15.26;36.80;101186.06;10348694;28;20100;-56
2021/03/30 23:50:18;;;;;;;5.45;3.35;;;;;;;15.25;36.45;101190.53;10363409;28;20095;-56